sensor_id;sensor_type;location;lat;lon;timestamp;P1;durP1;ratioP1;P2;durP2;ratioP2
21239;SDS011;10778;48.962;9.018;2024-01-07T00:02:15;23.25;;;15.55;;
21239;SDS011;10778;48.962;9.018;2024-01-07T00:04:41;25.92;;;16.60;;
21239;SDS011;10778;48.962;9.018;2024-01-07T00:07:06;25.80;;;16.95;;
21239;SDS011;10778;48.962;9.018;2024-01-07T00:09:32;26.13;;;16.85;;
21239;SDS011;10778;48.962;9.018;2024-01-07T00:11:58;27.20;;;17.90;;
21239;SDS011;10778;48.962;9.018;2024-01-07T00:14:24;26.17;;;17.48;;
21239;SDS011;10778;48.962;9.018;2024-01-07T00:16:50;27.92;;;17.85;;
21239;SDS011;10778;48.962;9.018;2024-01-07T00:19:16;26.95;;;17.45;;
21239;SDS011;10778;48.962;9.018;2024-01-07T00:21:42;27.73;;;18.15;;
21239;SDS011;10778;48.962;9.018;2024-01-07T00:24:08;26.50;;;17.35;;
21239;SDS011;10778;48.962;9.018;2024-01-07T00:26:34;27.85;;;17.70;;
21239;SDS011;10778;48.962;9.018;2024-01-07T00:29:00;28.05;;;18.25;;
21239;SDS011;10778;48.962;9.018;2024-01-07T00:31:27;28.58;;;18.05;;
21239;SDS011;10778;48.962;9.018;2024-01-07T00:33:53;28.95;;;18.08;;
21239;SDS011;10778;48.962;9.018;2024-01-07T00:36:19;28.70;;;17.65;;
21239;SDS011;10778;48.962;9.018;2024-01-07T00:38:45;27.40;;;18.17;;
21239;SDS011;10778;48.962;9.018;2024-01-07T00:41:12;25.65;;;16.77;;
21239;SDS011;10778;48.962;9.018;2024-01-07T00:43:38;28.05;;;17.38;;
21239;SDS011;10778;48.962;9.018;2024-01-07T00:46:04;27.90;;;17.73;;
21239;SDS011;10778;48.962;9.018;2024-01-07T00:48:30;27.77;;;17.38;;
21239;SDS011;10778;48.962;9.018;2024-01-07T00:50:56;27.20;;;17.80;;
21239;SDS011;10778;48.962;9.018;2024-01-07T00:53:22;27.27;;;17.42;;
21239;SDS011;10778;48.962;9.018;2024-01-07T00:55:48;26.95;;;17.17;;
21239;SDS011;10778;48.962;9.018;2024-01-07T00:58:14;25.23;;;16.83;;
21239;SDS011;10778;48.962;9.018;2024-01-07T01:00:40;25.42;;;15.85;;
21239;SDS011;10778;48.962;9.018;2024-01-07T01:03:06;23.58;;;15.77;;
21239;SDS011;10778;48.962;9.018;2024-01-07T01:05:32;20.88;;;14.90;;
21239;SDS011;10778;48.962;9.018;2024-01-07T01:07:57;21.17;;;14.95;;
21239;SDS011;10778;48.962;9.018;2024-01-07T01:10:24;19.33;;;13.82;;
21239;SDS011;10778;48.962;9.018;2024-01-07T01:12:50;21.58;;;14.35;;
21239;SDS011;10778;48.962;9.018;2024-01-07T01:15:19;20.67;;;13.63;;
21239;SDS011;10778;48.962;9.018;2024-01-07T01:17:46;18.63;;;13.85;;
21239;SDS011;10778;48.962;9.018;2024-01-07T01:20:12;21.40;;;14.52;;
21239;SDS011;10778;48.962;9.018;2024-01-07T01:22:37;19.25;;;13.52;;
21239;SDS011;10778;48.962;9.018;2024-01-07T01:25:04;20.08;;;13.50;;
21239;SDS011;10778;48.962;9.018;2024-01-07T01:27:30;19.20;;;13.32;;
21239;SDS011;10778;48.962;9.018;2024-01-07T01:29:56;17.95;;;12.85;;
21239;SDS011;10778;48.962;9.018;2024-01-07T01:32:22;17.40;;;12.93;;
21239;SDS011;10778;48.962;9.018;2024-01-07T01:34:48;19.70;;;13.20;;
21239;SDS011;10778;48.962;9.018;2024-01-07T01:37:14;17.50;;;13.02;;
21239;SDS011;10778;48.962;9.018;2024-01-07T01:39:40;20.02;;;13.63;;
21239;SDS011;10778;48.962;9.018;2024-01-07T01:42:07;18.13;;;12.65;;
21239;SDS011;10778;48.962;9.018;2024-01-07T01:44:33;17.88;;;12.70;;
21239;SDS011;10778;48.962;9.018;2024-01-07T01:47:00;18.63;;;12.68;;
21239;SDS011;10778;48.962;9.018;2024-01-07T01:49:27;18.13;;;13.13;;
21239;SDS011;10778;48.962;9.018;2024-01-07T01:51:53;19.90;;;12.90;;
21239;SDS011;10778;48.962;9.018;2024-01-07T01:54:20;18.48;;;12.75;;
21239;SDS011;10778;48.962;9.018;2024-01-07T01:56:46;20.92;;;13.07;;
21239;SDS011;10778;48.962;9.018;2024-01-07T01:59:14;19.95;;;13.20;;
21239;SDS011;10778;48.962;9.018;2024-01-07T02:01:40;21.00;;;12.80;;
21239;SDS011;10778;48.962;9.018;2024-01-07T02:04:07;17.00;;;12.40;;
21239;SDS011;10778;48.962;9.018;2024-01-07T02:06:34;17.25;;;12.30;;
21239;SDS011;10778;48.962;9.018;2024-01-07T02:09:01;18.50;;;13.10;;
21239;SDS011;10778;48.962;9.018;2024-01-07T02:11:28;21.70;;;13.90;;
21239;SDS011;10778;48.962;9.018;2024-01-07T02:13:54;18.50;;;12.50;;
21239;SDS011;10778;48.962;9.018;2024-01-07T02:16:19;19.60;;;13.48;;
21239;SDS011;10778;48.962;9.018;2024-01-07T02:18:46;20.50;;;13.38;;
21239;SDS011;10778;48.962;9.018;2024-01-07T02:21:15;18.80;;;13.32;;
21239;SDS011;10778;48.962;9.018;2024-01-07T02:23:41;20.45;;;13.75;;
21239;SDS011;10778;48.962;9.018;2024-01-07T02:26:07;20.73;;;14.20;;
21239;SDS011;10778;48.962;9.018;2024-01-07T02:28:33;17.67;;;12.88;;
21239;SDS011;10778;48.962;9.018;2024-01-07T02:30:59;20.45;;;13.00;;
21239;SDS011;10778;48.962;9.018;2024-01-07T02:33:26;18.77;;;13.48;;
21239;SDS011;10778;48.962;9.018;2024-01-07T02:35:52;19.10;;;13.13;;
21239;SDS011;10778;48.962;9.018;2024-01-07T02:38:18;20.88;;;13.02;;
21239;SDS011;10778;48.962;9.018;2024-01-07T02:40:44;22.08;;;14.23;;
21239;SDS011;10778;48.962;9.018;2024-01-07T02:43:10;20.38;;;13.80;;
21239;SDS011;10778;48.962;9.018;2024-01-07T02:45:36;20.45;;;13.82;;
21239;SDS011;10778;48.962;9.018;2024-01-07T02:48:02;21.95;;;14.18;;
21239;SDS011;10778;48.962;9.018;2024-01-07T02:50:28;20.90;;;13.63;;
21239;SDS011;10778;48.962;9.018;2024-01-07T02:52:54;21.13;;;14.15;;
21239;SDS011;10778;48.962;9.018;2024-01-07T02:55:20;21.50;;;14.32;;
21239;SDS011;10778;48.962;9.018;2024-01-07T02:57:46;21.83;;;14.70;;
21239;SDS011;10778;48.962;9.018;2024-01-07T03:00:12;23.75;;;14.68;;
21239;SDS011;10778;48.962;9.018;2024-01-07T03:02:38;23.42;;;14.48;;
21239;SDS011;10778;48.962;9.018;2024-01-07T03:05:04;22.08;;;14.50;;
21239;SDS011;10778;48.962;9.018;2024-01-07T03:07:30;21.30;;;14.43;;
21239;SDS011;10778;48.962;9.018;2024-01-07T03:09:56;21.17;;;14.65;;
21239;SDS011;10778;48.962;9.018;2024-01-07T03:12:22;22.48;;;14.55;;
21239;SDS011;10778;48.962;9.018;2024-01-07T03:14:48;24.17;;;15.93;;
21239;SDS011;10778;48.962;9.018;2024-01-07T03:17:14;19.88;;;14.15;;
21239;SDS011;10778;48.962;9.018;2024-01-07T03:19:42;23.25;;;14.38;;
21239;SDS011;10778;48.962;9.018;2024-01-07T03:22:08;19.75;;;13.05;;
21239;SDS011;10778;48.962;9.018;2024-01-07T03:24:34;20.05;;;13.57;;
21239;SDS011;10778;48.962;9.018;2024-01-07T03:27:00;22.20;;;14.43;;
21239;SDS011;10778;48.962;9.018;2024-01-07T03:29:27;22.38;;;14.98;;
21239;SDS011;10778;48.962;9.018;2024-01-07T03:31:53;19.85;;;13.45;;
21239;SDS011;10778;48.962;9.018;2024-01-07T03:34:19;20.60;;;14.00;;
21239;SDS011;10778;48.962;9.018;2024-01-07T03:36:45;21.17;;;13.68;;
21239;SDS011;10778;48.962;9.018;2024-01-07T03:39:11;20.67;;;13.90;;
21239;SDS011;10778;48.962;9.018;2024-01-07T03:41:37;20.60;;;13.63;;
21239;SDS011;10778;48.962;9.018;2024-01-07T03:44:03;20.73;;;13.25;;
21239;SDS011;10778;48.962;9.018;2024-01-07T03:46:29;21.52;;;13.55;;
21239;SDS011;10778;48.962;9.018;2024-01-07T03:48:55;19.77;;;13.23;;
21239;SDS011;10778;48.962;9.018;2024-01-07T03:51:21;19.25;;;12.68;;
21239;SDS011;10778;48.962;9.018;2024-01-07T03:53:47;20.05;;;13.00;;
21239;SDS011;10778;48.962;9.018;2024-01-07T03:56:13;20.35;;;13.23;;
21239;SDS011;10778;48.962;9.018;2024-01-07T03:58:39;19.25;;;12.55;;
21239;SDS011;10778;48.962;9.018;2024-01-07T04:01:05;18.70;;;12.30;;
21239;SDS011;10778;48.962;9.018;2024-01-07T04:03:31;18.00;;;12.00;;
21239;SDS011;10778;48.962;9.018;2024-01-07T04:05:57;20.27;;;13.05;;
21239;SDS011;10778;48.962;9.018;2024-01-07T04:08:23;18.88;;;13.05;;
21239;SDS011;10778;48.962;9.018;2024-01-07T04:10:49;19.27;;;12.75;;
21239;SDS011;10778;48.962;9.018;2024-01-07T04:13:15;20.10;;;13.25;;
21239;SDS011;10778;48.962;9.018;2024-01-07T04:15:41;19.55;;;12.63;;
21239;SDS011;10778;48.962;9.018;2024-01-07T04:18:07;19.73;;;12.52;;
21239;SDS011;10778;48.962;9.018;2024-01-07T04:20:33;18.65;;;12.25;;
21239;SDS011;10778;48.962;9.018;2024-01-07T04:22:59;19.42;;;12.27;;
21239;SDS011;10778;48.962;9.018;2024-01-07T04:25:25;19.25;;;12.27;;
21239;SDS011;10778;48.962;9.018;2024-01-07T04:27:51;20.35;;;13.30;;
21239;SDS011;10778;48.962;9.018;2024-01-07T04:30:17;19.67;;;12.85;;
21239;SDS011;10778;48.962;9.018;2024-01-07T04:32:43;20.35;;;12.70;;
21239;SDS011;10778;48.962;9.018;2024-01-07T04:35:09;20.63;;;13.10;;
21239;SDS011;10778;48.962;9.018;2024-01-07T04:37:35;19.02;;;12.25;;
21239;SDS011;10778;48.962;9.018;2024-01-07T04:40:01;19.05;;;12.23;;
21239;SDS011;10778;48.962;9.018;2024-01-07T04:42:28;19.23;;;12.70;;
21239;SDS011;10778;48.962;9.018;2024-01-07T04:44:54;17.60;;;12.02;;
21239;SDS011;10778;48.962;9.018;2024-01-07T04:47:26;19.27;;;12.35;;
21239;SDS011;10778;48.962;9.018;2024-01-07T04:49:53;17.50;;;11.63;;
21239;SDS011;10778;48.962;9.018;2024-01-07T04:52:19;20.73;;;12.43;;
21239;SDS011;10778;48.962;9.018;2024-01-07T04:54:45;18.52;;;12.00;;
21239;SDS011;10778;48.962;9.018;2024-01-07T04:57:11;20.13;;;12.63;;
21239;SDS011;10778;48.962;9.018;2024-01-07T04:59:37;17.63;;;11.70;;
21239;SDS011;10778;48.962;9.018;2024-01-07T05:02:03;18.08;;;11.35;;
21239;SDS011;10778;48.962;9.018;2024-01-07T05:04:29;16.35;;;11.15;;
21239;SDS011;10778;48.962;9.018;2024-01-07T05:06:55;17.73;;;11.48;;
21239;SDS011;10778;48.962;9.018;2024-01-07T05:09:21;18.33;;;11.70;;
21239;SDS011;10778;48.962;9.018;2024-01-07T05:11:47;18.42;;;11.50;;
21239;SDS011;10778;48.962;9.018;2024-01-07T05:14:13;17.55;;;10.98;;
21239;SDS011;10778;48.962;9.018;2024-01-07T05:16:39;16.88;;;10.88;;
21239;SDS011;10778;48.962;9.018;2024-01-07T05:19:05;15.55;;;10.65;;
21239;SDS011;10778;48.962;9.018;2024-01-07T05:21:31;18.92;;;10.88;;
21239;SDS011;10778;48.962;9.018;2024-01-07T05:23:57;17.05;;;10.63;;
21239;SDS011;10778;48.962;9.018;2024-01-07T05:26:23;15.77;;;10.15;;
21239;SDS011;10778;48.962;9.018;2024-01-07T05:28:49;18.20;;;11.05;;
21239;SDS011;10778;48.962;9.018;2024-01-07T05:31:15;18.45;;;11.88;;
21239;SDS011;10778;48.962;9.018;2024-01-07T05:33:44;16.83;;;10.95;;
21239;SDS011;10778;48.962;9.018;2024-01-07T05:36:14;15.20;;;10.55;;
21239;SDS011;10778;48.962;9.018;2024-01-07T05:38:43;15.95;;;10.18;;
21239;SDS011;10778;48.962;9.018;2024-01-07T05:41:09;15.65;;;10.68;;
21239;SDS011;10778;48.962;9.018;2024-01-07T05:43:36;16.38;;;10.90;;
21239;SDS011;10778;48.962;9.018;2024-01-07T05:46:02;15.68;;;9.77;;
21239;SDS011;10778;48.962;9.018;2024-01-07T05:48:29;17.08;;;10.77;;
21239;SDS011;10778;48.962;9.018;2024-01-07T05:50:55;15.63;;;10.65;;
21239;SDS011;10778;48.962;9.018;2024-01-07T05:53:21;15.45;;;10.27;;
21239;SDS011;10778;48.962;9.018;2024-01-07T05:55:46;15.88;;;10.95;;
21239;SDS011;10778;48.962;9.018;2024-01-07T05:58:12;15.40;;;10.32;;
21239;SDS011;10778;48.962;9.018;2024-01-07T06:00:38;16.35;;;10.95;;
21239;SDS011;10778;48.962;9.018;2024-01-07T06:03:04;14.27;;;10.20;;
21239;SDS011;10778;48.962;9.018;2024-01-07T06:05:30;15.27;;;10.15;;
21239;SDS011;10778;48.962;9.018;2024-01-07T06:07:56;15.95;;;10.75;;
21239;SDS011;10778;48.962;9.018;2024-01-07T06:10:22;16.10;;;10.23;;
21239;SDS011;10778;48.962;9.018;2024-01-07T06:12:48;15.45;;;10.38;;
21239;SDS011;10778;48.962;9.018;2024-01-07T06:15:14;15.52;;;10.40;;
21239;SDS011;10778;48.962;9.018;2024-01-07T06:17:40;15.60;;;10.50;;
21239;SDS011;10778;48.962;9.018;2024-01-07T06:20:06;14.20;;;10.18;;
21239;SDS011;10778;48.962;9.018;2024-01-07T06:22:33;15.35;;;10.23;;
21239;SDS011;10778;48.962;9.018;2024-01-07T06:24:59;14.60;;;10.43;;
21239;SDS011;10778;48.962;9.018;2024-01-07T06:27:25;16.00;;;10.85;;
21239;SDS011;10778;48.962;9.018;2024-01-07T06:29:51;15.50;;;10.48;;
21239;SDS011;10778;48.962;9.018;2024-01-07T06:32:17;15.63;;;11.10;;
21239;SDS011;10778;48.962;9.018;2024-01-07T06:34:43;16.08;;;11.00;;
21239;SDS011;10778;48.962;9.018;2024-01-07T06:37:09;18.05;;;10.90;;
21239;SDS011;10778;48.962;9.018;2024-01-07T06:39:36;15.48;;;10.35;;
21239;SDS011;10778;48.962;9.018;2024-01-07T06:42:02;16.00;;;10.73;;
21239;SDS011;10778;48.962;9.018;2024-01-07T06:44:28;15.05;;;10.48;;
21239;SDS011;10778;48.962;9.018;2024-01-07T06:46:53;14.00;;;10.27;;
21239;SDS011;10778;48.962;9.018;2024-01-07T06:49:19;17.05;;;10.32;;
21239;SDS011;10778;48.962;9.018;2024-01-07T06:51:45;16.35;;;10.32;;
21239;SDS011;10778;48.962;9.018;2024-01-07T06:54:11;15.45;;;10.73;;
21239;SDS011;10778;48.962;9.018;2024-01-07T06:56:37;15.38;;;10.57;;
21239;SDS011;10778;48.962;9.018;2024-01-07T06:59:03;14.30;;;10.45;;
21239;SDS011;10778;48.962;9.018;2024-01-07T07:01:29;16.38;;;10.38;;
21239;SDS011;10778;48.962;9.018;2024-01-07T07:03:55;14.65;;;10.55;;
21239;SDS011;10778;48.962;9.018;2024-01-07T07:06:21;14.82;;;10.20;;
21239;SDS011;10778;48.962;9.018;2024-01-07T07:08:47;14.15;;;9.80;;
21239;SDS011;10778;48.962;9.018;2024-01-07T07:11:13;17.23;;;10.68;;
21239;SDS011;10778;48.962;9.018;2024-01-07T07:13:39;15.90;;;10.02;;
21239;SDS011;10778;48.962;9.018;2024-01-07T07:16:06;14.75;;;9.75;;
21239;SDS011;10778;48.962;9.018;2024-01-07T07:18:32;13.77;;;9.88;;
21239;SDS011;10778;48.962;9.018;2024-01-07T07:20:58;14.98;;;9.90;;
21239;SDS011;10778;48.962;9.018;2024-01-07T07:23:24;12.32;;;8.90;;
21239;SDS011;10778;48.962;9.018;2024-01-07T07:25:51;12.55;;;9.18;;
21239;SDS011;10778;48.962;9.018;2024-01-07T07:28:17;13.48;;;9.23;;
21239;SDS011;10778;48.962;9.018;2024-01-07T07:30:43;12.90;;;8.73;;
21239;SDS011;10778;48.962;9.018;2024-01-07T07:33:10;13.63;;;8.95;;
21239;SDS011;10778;48.962;9.018;2024-01-07T07:35:36;14.32;;;9.15;;
21239;SDS011;10778;48.962;9.018;2024-01-07T07:38:04;13.45;;;9.70;;
21239;SDS011;10778;48.962;9.018;2024-01-07T07:40:30;14.10;;;9.40;;
21239;SDS011;10778;48.962;9.018;2024-01-07T07:42:56;14.80;;;9.63;;
21239;SDS011;10778;48.962;9.018;2024-01-07T07:45:22;14.80;;;10.13;;
21239;SDS011;10778;48.962;9.018;2024-01-07T07:47:48;15.75;;;9.77;;
21239;SDS011;10778;48.962;9.018;2024-01-07T07:50:14;14.98;;;9.65;;
21239;SDS011;10778;48.962;9.018;2024-01-07T07:52:43;13.75;;;9.52;;
21239;SDS011;10778;48.962;9.018;2024-01-07T07:55:09;14.45;;;9.07;;
21239;SDS011;10778;48.962;9.018;2024-01-07T07:57:36;13.68;;;8.63;;
21239;SDS011;10778;48.962;9.018;2024-01-07T08:00:04;13.43;;;8.90;;
21239;SDS011;10778;48.962;9.018;2024-01-07T08:02:32;13.25;;;8.32;;
21239;SDS011;10778;48.962;9.018;2024-01-07T08:04:58;12.75;;;8.90;;
21239;SDS011;10778;48.962;9.018;2024-01-07T08:07:24;11.80;;;7.80;;
21239;SDS011;10778;48.962;9.018;2024-01-07T08:09:51;12.25;;;7.70;;
21239;SDS011;10778;48.962;9.018;2024-01-07T08:12:17;11.13;;;7.70;;
21239;SDS011;10778;48.962;9.018;2024-01-07T08:14:43;11.65;;;7.70;;
21239;SDS011;10778;48.962;9.018;2024-01-07T08:17:09;11.50;;;8.35;;
21239;SDS011;10778;48.962;9.018;2024-01-07T08:19:35;12.15;;;8.27;;
21239;SDS011;10778;48.962;9.018;2024-01-07T08:22:01;11.50;;;7.95;;
21239;SDS011;10778;48.962;9.018;2024-01-07T08:24:27;11.73;;;8.15;;
21239;SDS011;10778;48.962;9.018;2024-01-07T08:26:53;11.30;;;8.23;;
21239;SDS011;10778;48.962;9.018;2024-01-07T08:29:20;13.82;;;8.10;;
21239;SDS011;10778;48.962;9.018;2024-01-07T08:31:46;12.93;;;8.23;;
21239;SDS011;10778;48.962;9.018;2024-01-07T08:34:12;12.75;;;8.23;;
21239;SDS011;10778;48.962;9.018;2024-01-07T08:36:38;13.25;;;8.90;;
21239;SDS011;10778;48.962;9.018;2024-01-07T08:39:04;12.07;;;8.32;;
21239;SDS011;10778;48.962;9.018;2024-01-07T08:41:30;11.82;;;8.10;;
21239;SDS011;10778;48.962;9.018;2024-01-07T08:43:56;14.15;;;8.75;;
21239;SDS011;10778;48.962;9.018;2024-01-07T08:46:22;17.35;;;11.90;;
21239;SDS011;10778;48.962;9.018;2024-01-07T08:48:48;16.50;;;11.30;;
21239;SDS011;10778;48.962;9.018;2024-01-07T08:51:14;12.32;;;8.65;;
21239;SDS011;10778;48.962;9.018;2024-01-07T08:53:40;11.73;;;8.57;;
21239;SDS011;10778;48.962;9.018;2024-01-07T08:56:06;12.27;;;8.90;;
21239;SDS011;10778;48.962;9.018;2024-01-07T08:58:32;13.90;;;8.80;;
21239;SDS011;10778;48.962;9.018;2024-01-07T09:00:58;13.10;;;9.18;;
21239;SDS011;10778;48.962;9.018;2024-01-07T09:03:24;15.55;;;9.55;;
21239;SDS011;10778;48.962;9.018;2024-01-07T09:05:50;17.58;;;10.80;;
21239;SDS011;10778;48.962;9.018;2024-01-07T09:08:16;14.40;;;9.35;;
21239;SDS011;10778;48.962;9.018;2024-01-07T09:10:42;13.82;;;9.25;;
21239;SDS011;10778;48.962;9.018;2024-01-07T09:13:08;13.82;;;8.80;;
21239;SDS011;10778;48.962;9.018;2024-01-07T09:15:34;13.68;;;9.52;;
21239;SDS011;10778;48.962;9.018;2024-01-07T09:18:00;12.13;;;8.55;;
21239;SDS011;10778;48.962;9.018;2024-01-07T09:20:26;11.15;;;7.47;;
21239;SDS011;10778;48.962;9.018;2024-01-07T09:22:52;11.38;;;7.55;;
21239;SDS011;10778;48.962;9.018;2024-01-07T09:25:18;13.98;;;7.97;;
21239;SDS011;10778;48.962;9.018;2024-01-07T09:27:44;10.60;;;7.30;;
21239;SDS011;10778;48.962;9.018;2024-01-07T09:30:10;10.63;;;7.00;;
21239;SDS011;10778;48.962;9.018;2024-01-07T09:32:43;9.05;;;6.65;;
21239;SDS011;10778;48.962;9.018;2024-01-07T09:35:09;8.98;;;6.60;;
21239;SDS011;10778;48.962;9.018;2024-01-07T09:37:35;16.05;;;8.43;;
21239;SDS011;10778;48.962;9.018;2024-01-07T09:40:01;13.35;;;8.50;;
21239;SDS011;10778;48.962;9.018;2024-01-07T09:42:30;11.80;;;7.40;;
21239;SDS011;10778;48.962;9.018;2024-01-07T09:44:55;12.05;;;6.78;;
21239;SDS011;10778;48.962;9.018;2024-01-07T09:47:22;10.00;;;6.80;;
21239;SDS011;10778;48.962;9.018;2024-01-07T09:49:49;8.32;;;6.28;;
21239;SDS011;10778;48.962;9.018;2024-01-07T09:52:15;7.55;;;5.15;;
21239;SDS011;10778;48.962;9.018;2024-01-07T09:54:43;8.07;;;5.30;;
21239;SDS011;10778;48.962;9.018;2024-01-07T09:57:16;10.32;;;6.05;;
21239;SDS011;10778;48.962;9.018;2024-01-07T09:59:42;7.78;;;5.00;;
21239;SDS011;10778;48.962;9.018;2024-01-07T10:02:08;6.65;;;5.00;;
21239;SDS011;10778;48.962;9.018;2024-01-07T10:04:35;9.13;;;5.25;;
21239;SDS011;10778;48.962;9.018;2024-01-07T10:07:01;7.80;;;5.70;;
21239;SDS011;10778;48.962;9.018;2024-01-07T10:09:32;10.38;;;7.18;;
21239;SDS011;10778;48.962;9.018;2024-01-07T10:11:59;11.07;;;8.32;;
21239;SDS011;10778;48.962;9.018;2024-01-07T10:14:25;9.32;;;6.10;;
21239;SDS011;10778;48.962;9.018;2024-01-07T10:16:52;9.38;;;6.43;;
21239;SDS011;10778;48.962;9.018;2024-01-07T10:19:19;7.38;;;5.60;;
21239;SDS011;10778;48.962;9.018;2024-01-07T10:21:46;7.20;;;5.13;;
21239;SDS011;10778;48.962;9.018;2024-01-07T10:24:23;8.18;;;5.30;;
21239;SDS011;10778;48.962;9.018;2024-01-07T10:26:49;7.80;;;5.53;;
21239;SDS011;10778;48.962;9.018;2024-01-07T10:29:15;5.03;;;4.20;;
21239;SDS011;10778;48.962;9.018;2024-01-07T10:31:42;4.90;;;4.18;;
21239;SDS011;10778;48.962;9.018;2024-01-07T10:34:09;6.55;;;4.95;;
21239;SDS011;10778;48.962;9.018;2024-01-07T10:36:35;5.45;;;4.47;;
21239;SDS011;10778;48.962;9.018;2024-01-07T10:39:03;6.15;;;4.82;;
21239;SDS011;10778;48.962;9.018;2024-01-07T10:41:29;6.88;;;4.45;;
21239;SDS011;10778;48.962;9.018;2024-01-07T10:43:57;5.38;;;4.13;;
21239;SDS011;10778;48.962;9.018;2024-01-07T10:46:23;5.25;;;4.07;;
21239;SDS011;10778;48.962;9.018;2024-01-07T10:48:58;5.40;;;4.00;;
21239;SDS011;10778;48.962;9.018;2024-01-07T10:51:27;5.20;;;3.70;;
21239;SDS011;10778;48.962;9.018;2024-01-07T10:53:53;5.18;;;3.85;;
21239;SDS011;10778;48.962;9.018;2024-01-07T10:56:25;5.82;;;4.10;;
21239;SDS011;10778;48.962;9.018;2024-01-07T10:58:58;5.97;;;4.63;;
21239;SDS011;10778;48.962;9.018;2024-01-07T11:01:25;5.40;;;4.13;;
21239;SDS011;10778;48.962;9.018;2024-01-07T11:03:57;5.50;;;3.97;;
21239;SDS011;10778;48.962;9.018;2024-01-07T11:06:49;4.55;;;3.63;;
21239;SDS011;10778;48.962;9.018;2024-01-07T11:09:33;6.53;;;4.32;;
21239;SDS011;10778;48.962;9.018;2024-01-07T11:12:03;5.90;;;4.20;;
21239;SDS011;10778;48.962;9.018;2024-01-07T11:14:37;4.25;;;3.58;;
21239;SDS011;10778;48.962;9.018;2024-01-07T11:17:05;6.22;;;4.30;;
21239;SDS011;10778;48.962;9.018;2024-01-07T11:19:32;5.63;;;3.88;;
21239;SDS011;10778;48.962;9.018;2024-01-07T11:25:01;7.05;;;4.10;;
21239;SDS011;10778;48.962;9.018;2024-01-07T11:27:30;5.57;;;4.15;;
21239;SDS011;10778;48.962;9.018;2024-01-07T11:30:05;6.65;;;4.68;;
21239;SDS011;10778;48.962;9.018;2024-01-07T11:32:33;5.13;;;4.07;;
21239;SDS011;10778;48.962;9.018;2024-01-07T11:35:00;5.75;;;4.28;;
21239;SDS011;10778;48.962;9.018;2024-01-07T11:37:28;7.65;;;4.90;;
21239;SDS011;10778;48.962;9.018;2024-01-07T11:39:57;7.75;;;5.70;;
21239;SDS011;10778;48.962;9.018;2024-01-07T11:42:23;8.02;;;5.85;;
21239;SDS011;10778;48.962;9.018;2024-01-07T11:44:53;7.35;;;5.10;;
21239;SDS011;10778;48.962;9.018;2024-01-07T11:47:20;13.30;;;8.07;;
21239;SDS011;10778;48.962;9.018;2024-01-07T11:49:47;7.22;;;5.45;;
21239;SDS011;10778;48.962;9.018;2024-01-07T11:52:14;12.50;;;7.22;;
21239;SDS011;10778;48.962;9.018;2024-01-07T11:54:41;11.27;;;7.05;;
21239;SDS011;10778;48.962;9.018;2024-01-07T11:57:07;8.68;;;5.85;;
21239;SDS011;10778;48.962;9.018;2024-01-07T11:59:34;12.45;;;8.05;;
21239;SDS011;10778;48.962;9.018;2024-01-07T12:02:00;21.05;;;12.27;;
21239;SDS011;10778;48.962;9.018;2024-01-07T12:04:27;13.90;;;8.18;;
21239;SDS011;10778;48.962;9.018;2024-01-07T12:06:53;10.93;;;7.07;;
21239;SDS011;10778;48.962;9.018;2024-01-07T12:09:19;10.43;;;7.00;;
21239;SDS011;10778;48.962;9.018;2024-01-07T12:11:45;47.20;;;23.88;;
21239;SDS011;10778;48.962;9.018;2024-01-07T12:14:11;12.65;;;8.13;;
21239;SDS011;10778;48.962;9.018;2024-01-07T12:16:38;11.60;;;6.75;;
21239;SDS011;10778;48.962;9.018;2024-01-07T12:19:04;9.30;;;6.45;;
21239;SDS011;10778;48.962;9.018;2024-01-07T12:21:30;11.77;;;7.18;;
21239;SDS011;10778;48.962;9.018;2024-01-07T12:23:56;15.38;;;8.93;;
21239;SDS011;10778;48.962;9.018;2024-01-07T12:26:27;12.80;;;7.50;;
21239;SDS011;10778;48.962;9.018;2024-01-07T12:28:54;12.82;;;7.70;;
21239;SDS011;10778;48.962;9.018;2024-01-07T12:31:21;11.15;;;6.68;;
21239;SDS011;10778;48.962;9.018;2024-01-07T12:33:47;10.00;;;6.88;;
21239;SDS011;10778;48.962;9.018;2024-01-07T12:36:13;9.07;;;6.70;;
21239;SDS011;10778;48.962;9.018;2024-01-07T12:38:40;9.57;;;6.45;;
21239;SDS011;10778;48.962;9.018;2024-01-07T12:41:06;9.63;;;6.47;;
21239;SDS011;10778;48.962;9.018;2024-01-07T12:43:33;15.45;;;7.95;;
21239;SDS011;10778;48.962;9.018;2024-01-07T12:45:59;9.50;;;6.18;;
21239;SDS011;10778;48.962;9.018;2024-01-07T12:48:30;17.10;;;8.65;;
21239;SDS011;10778;48.962;9.018;2024-01-07T12:50:56;11.20;;;7.35;;
21239;SDS011;10778;48.962;9.018;2024-01-07T12:53:23;12.27;;;7.90;;
21239;SDS011;10778;48.962;9.018;2024-01-07T12:55:49;10.75;;;7.13;;
21239;SDS011;10778;48.962;9.018;2024-01-07T12:58:15;13.80;;;8.07;;
21239;SDS011;10778;48.962;9.018;2024-01-07T13:00:42;29.35;;;13.95;;
21239;SDS011;10778;48.962;9.018;2024-01-07T13:03:09;13.77;;;8.38;;
21239;SDS011;10778;48.962;9.018;2024-01-07T13:05:46;19.35;;;10.90;;
21239;SDS011;10778;48.962;9.018;2024-01-07T13:08:15;15.85;;;9.60;;
21239;SDS011;10778;48.962;9.018;2024-01-07T13:10:44;12.77;;;7.82;;
21239;SDS011;10778;48.962;9.018;2024-01-07T13:13:11;13.38;;;8.43;;
21239;SDS011;10778;48.962;9.018;2024-01-07T13:15:38;13.88;;;8.77;;
21239;SDS011;10778;48.962;9.018;2024-01-07T13:18:06;12.55;;;7.93;;
21239;SDS011;10778;48.962;9.018;2024-01-07T13:20:33;11.15;;;7.60;;
21239;SDS011;10778;48.962;9.018;2024-01-07T13:23:01;12.02;;;8.20;;
21239;SDS011;10778;48.962;9.018;2024-01-07T13:25:27;10.15;;;7.20;;
21239;SDS011;10778;48.962;9.018;2024-01-07T13:27:53;10.13;;;7.32;;
21239;SDS011;10778;48.962;9.018;2024-01-07T13:30:19;9.73;;;7.25;;
21239;SDS011;10778;48.962;9.018;2024-01-07T13:32:45;11.07;;;7.43;;
21239;SDS011;10778;48.962;9.018;2024-01-07T13:35:11;11.73;;;8.05;;
21239;SDS011;10778;48.962;9.018;2024-01-07T13:37:38;10.65;;;7.88;;
21239;SDS011;10778;48.962;9.018;2024-01-07T13:40:07;11.63;;;7.78;;
21239;SDS011;10778;48.962;9.018;2024-01-07T13:42:36;10.80;;;7.68;;
21239;SDS011;10778;48.962;9.018;2024-01-07T13:45:03;11.35;;;8.00;;
21239;SDS011;10778;48.962;9.018;2024-01-07T13:47:30;10.88;;;7.57;;
21239;SDS011;10778;48.962;9.018;2024-01-07T13:49:56;11.88;;;8.15;;
21239;SDS011;10778;48.962;9.018;2024-01-07T13:52:22;11.63;;;7.80;;
21239;SDS011;10778;48.962;9.018;2024-01-07T13:54:48;11.77;;;8.20;;
21239;SDS011;10778;48.962;9.018;2024-01-07T13:57:14;10.95;;;7.70;;
21239;SDS011;10778;48.962;9.018;2024-01-07T13:59:40;10.15;;;7.68;;
21239;SDS011;10778;48.962;9.018;2024-01-07T14:02:07;12.88;;;8.27;;
21239;SDS011;10778;48.962;9.018;2024-01-07T14:04:33;11.88;;;8.27;;
21239;SDS011;10778;48.962;9.018;2024-01-07T14:06:59;11.32;;;8.00;;
21239;SDS011;10778;48.962;9.018;2024-01-07T14:09:25;13.20;;;8.15;;
21239;SDS011;10778;48.962;9.018;2024-01-07T14:11:51;13.40;;;8.82;;
21239;SDS011;10778;48.962;9.018;2024-01-07T14:14:17;12.57;;;8.10;;
21239;SDS011;10778;48.962;9.018;2024-01-07T14:16:45;11.68;;;8.02;;
21239;SDS011;10778;48.962;9.018;2024-01-07T14:19:11;11.88;;;8.32;;
21239;SDS011;10778;48.962;9.018;2024-01-07T14:21:38;11.90;;;8.43;;
21239;SDS011;10778;48.962;9.018;2024-01-07T14:24:05;10.45;;;7.75;;
21239;SDS011;10778;48.962;9.018;2024-01-07T14:26:31;13.20;;;8.45;;
21239;SDS011;10778;48.962;9.018;2024-01-07T14:28:57;12.10;;;7.70;;
21239;SDS011;10778;48.962;9.018;2024-01-07T14:31:23;10.45;;;7.90;;